createdAt,value
2018-01-15T00:00:52.251Z,17.45
2018-01-15T00:03:20.881Z,18.52
2018-01-15T00:05:49.304Z,16.98
2018-01-15T00:08:17.721Z,17.10
2018-01-15T00:10:46.029Z,16.83
2018-01-15T00:13:14.349Z,17.10
2018-01-15T00:15:42.714Z,17.30
2018-01-15T00:18:11.067Z,16.92
2018-01-15T00:20:39.388Z,14.98
2018-01-15T00:23:07.693Z,15.77
2018-01-15T00:25:36.003Z,16.70
2018-01-15T00:28:04.320Z,18.45
2018-01-15T00:30:32.671Z,16.73
2018-01-15T00:33:01.152Z,16.87
2018-01-15T00:35:29.461Z,15.48
2018-01-15T00:37:57.752Z,16.62
2018-01-15T00:40:26.071Z,16.70
2018-01-15T00:42:54.350Z,16.35
2018-01-15T00:45:22.880Z,16.12
2018-01-15T00:47:51.195Z,16.10
2018-01-15T00:50:20.264Z,16.60
2018-01-15T00:52:48.859Z,15.35
2018-01-15T00:55:17.182Z,17.00
2018-01-15T00:57:45.471Z,16.23
2018-01-15T01:00:14.015Z,16.45
2018-01-15T01:02:42.339Z,15.52
2018-01-15T01:05:10.633Z,15.43
2018-01-15T01:07:38.946Z,16.12
2018-01-15T01:10:07.278Z,17.20
2018-01-15T01:12:35.576Z,17.50
2018-01-15T01:15:03.869Z,16.45
2018-01-15T01:17:32.163Z,17.20
2018-01-15T01:20:00.460Z,19.35
2018-01-15T01:22:28.799Z,19.67
2018-01-15T01:24:57.121Z,16.40
2018-01-15T01:27:25.412Z,17.75
2018-01-15T01:29:53.827Z,17.40
2018-01-15T01:32:22.154Z,17.90
2018-01-15T01:34:50.442Z,16.42
2018-01-15T01:37:18.744Z,17.17
2018-01-15T01:39:47.056Z,17.62
2018-01-15T01:42:15.352Z,16.85
2018-01-15T01:44:43.701Z,17.90
2018-01-15T01:47:12.022Z,18.73
2018-01-15T01:49:40.309Z,17.55
2018-01-15T01:52:08.606Z,18.70
2018-01-15T01:54:36.984Z,17.83
2018-01-15T01:57:05.264Z,13.80
2018-01-15T01:59:33.572Z,15.77
2018-01-15T02:02:01.937Z,16.27
2018-01-15T02:04:30.350Z,17.17
2018-01-15T02:06:58.638Z,16.12
2018-01-15T02:09:27.237Z,15.43
2018-01-15T02:11:55.539Z,17.05
2018-01-15T02:14:23.812Z,17.77
2018-01-15T02:16:52.148Z,17.80
2018-01-15T02:19:20.469Z,16.23
2018-01-15T02:21:48.843Z,15.60
2018-01-15T02:24:17.135Z,17.10
2018-01-15T02:26:45.487Z,15.25
2018-01-15T02:29:13.805Z,17.85
2018-01-15T02:31:42.211Z,17.87
2018-01-15T02:34:10.555Z,16.17
2018-01-15T02:36:38.841Z,17.90
2018-01-15T02:39:07.156Z,18.77
2018-01-15T02:41:35.483Z,17.15
2018-01-15T02:44:03.903Z,17.65
2018-01-15T02:46:32.197Z,17.77
2018-01-15T02:49:00.512Z,18.02
2018-01-15T02:51:28.804Z,18.90
2018-01-15T02:53:57.132Z,19.33
2018-01-15T02:56:25.453Z,18.73
2018-01-15T02:58:53.745Z,17.55
2018-01-15T03:01:22.049Z,17.20
2018-01-15T03:03:50.364Z,15.25
2018-01-15T03:06:18.663Z,16.30
2018-01-15T03:08:46.977Z,18.45
2018-01-15T03:11:15.317Z,16.35
2018-01-15T03:13:43.613Z,18.17
2018-01-15T03:16:11.952Z,16.25
2018-01-15T03:18:40.243Z,15.68
2018-01-15T03:21:08.580Z,15.60
2018-01-15T03:23:36.872Z,16.50
2018-01-15T03:26:05.185Z,17.98
2018-01-15T03:28:33.521Z,15.70
2018-01-15T03:31:02.037Z,16.25
2018-01-15T03:33:30.362Z,16.33
2018-01-15T03:35:58.674Z,15.60
2018-01-15T03:38:26.970Z,16.80
2018-01-15T03:40:55.289Z,17.80
2018-01-15T03:43:23.579Z,17.65
2018-01-15T03:45:51.892Z,19.45
2018-01-15T03:48:20.223Z,17.48
2018-01-15T03:50:48.521Z,18.33
2018-01-15T03:53:16.954Z,17.20
2018-01-15T03:55:45.292Z,18.05
2018-01-15T03:58:13.657Z,17.80
2018-01-15T04:00:42.096Z,17.42
2018-01-15T04:03:10.497Z,17.52
2018-01-15T04:05:38.808Z,17.33
2018-01-15T04:08:07.137Z,17.45
2018-01-15T04:10:35.461Z,19.20
2018-01-15T04:13:03.758Z,18.52
2018-01-15T04:15:32.082Z,18.50
2018-01-15T04:18:00.400Z,18.33
2018-01-15T04:20:28.710Z,19.12
2018-01-15T04:22:57.033Z,18.27
2018-01-15T04:25:25.326Z,19.37
2018-01-15T04:27:53.613Z,20.45
2018-01-15T04:30:22.012Z,19.45
2018-01-15T04:32:50.308Z,18.08
2018-01-15T04:35:19.001Z,18.45
2018-01-15T04:37:47.316Z,17.37
2018-01-15T04:40:15.621Z,17.80
2018-01-15T04:42:43.949Z,16.45
2018-01-15T04:45:12.228Z,17.98
2018-01-15T04:47:40.593Z,17.60
2018-01-15T04:50:08.903Z,16.77
2018-01-15T04:52:37.214Z,17.00
2018-01-15T04:55:05.557Z,18.50
2018-01-15T04:57:34.138Z,16.23
2018-01-15T05:00:02.644Z,15.75
2018-01-15T05:02:30.957Z,15.95
2018-01-15T05:04:59.348Z,15.48
2018-01-15T05:07:27.669Z,15.10
2018-01-15T05:09:56.313Z,14.75
2018-01-15T05:12:24.596Z,16.50
2018-01-15T05:14:52.915Z,15.05
2018-01-15T05:17:21.205Z,14.75
2018-01-15T05:19:51.346Z,15.32
2018-01-15T05:22:19.667Z,15.27
2018-01-15T05:24:48.016Z,18.00
2018-01-15T05:27:16.357Z,17.52
2018-01-15T05:29:44.705Z,17.42
2018-01-15T05:32:13.044Z,15.63
2018-01-15T05:34:41.371Z,15.85
2018-01-15T05:37:09.696Z,16.33
2018-01-15T05:39:38.013Z,16.17
2018-01-15T05:42:06.333Z,14.90
2018-01-15T05:44:34.670Z,15.95
2018-01-15T05:47:03.055Z,15.80
2018-01-15T05:49:31.395Z,15.77
2018-01-15T05:51:59.738Z,14.27
2018-01-15T05:54:28.070Z,14.82
2018-01-15T05:56:56.494Z,15.25
2018-01-15T05:59:24.826Z,19.80
2018-01-15T06:01:53.135Z,15.70
2018-01-15T06:04:21.453Z,14.75
2018-01-15T06:06:49.762Z,16.08
2018-01-15T06:09:18.816Z,14.00
2018-01-15T06:11:47.171Z,16.37
2018-01-15T06:14:15.502Z,16.37
2018-01-15T06:16:43.799Z,14.98
2018-01-15T06:19:12.126Z,13.80
2018-01-15T06:21:40.434Z,15.18
2018-01-15T06:24:08.750Z,15.73
2018-01-15T06:26:37.068Z,16.85
2018-01-15T06:29:05.352Z,15.43
2018-01-15T06:31:33.687Z,16.00
2018-01-15T06:34:01.984Z,14.87
2018-01-15T06:36:30.639Z,15.38
2018-01-15T06:38:58.952Z,17.25
2018-01-15T06:41:28.211Z,18.80
2018-01-15T06:43:56.499Z,22.75
2018-01-15T06:46:24.800Z,19.90
2018-01-15T06:48:53.098Z,19.80
2018-01-15T06:51:21.413Z,18.45
2018-01-15T06:53:49.726Z,17.83
2018-01-15T06:56:18.516Z,16.85
2018-01-15T06:58:47.307Z,15.77
2018-01-15T07:01:15.618Z,18.15
2018-01-15T07:03:43.912Z,15.82
2018-01-15T07:06:12.236Z,15.73
2018-01-15T07:08:40.524Z,16.02
2018-01-15T07:11:08.838Z,17.60
2018-01-15T07:13:37.142Z,15.18
2018-01-15T07:16:05.448Z,17.50
2018-01-15T07:18:33.747Z,17.17
2018-01-15T07:21:02.038Z,17.70
2018-01-15T07:23:30.366Z,18.30
2018-01-15T07:25:58.673Z,17.58
2018-01-15T07:28:27.032Z,16.37
2018-01-15T07:30:55.336Z,15.32
2018-01-15T07:33:23.849Z,16.67
2018-01-15T07:35:52.168Z,15.05
2018-01-15T07:38:20.454Z,14.38
2018-01-15T07:40:49.611Z,16.10
2018-01-15T07:43:17.913Z,15.73
2018-01-15T07:45:46.225Z,14.60
2018-01-15T07:48:14.544Z,18.25
2018-01-15T07:50:42.842Z,17.12
2018-01-15T07:53:11.235Z,13.82
2018-01-15T07:55:39.555Z,13.38
2018-01-15T07:58:07.876Z,14.80
2018-01-15T08:00:36.218Z,15.02
2018-01-15T08:03:04.505Z,14.60
2018-01-15T08:05:32.797Z,13.57
2018-01-15T08:08:01.099Z,13.43
2018-01-15T08:10:29.399Z,13.02
2018-01-15T08:12:58.132Z,14.90
2018-01-15T08:15:27.412Z,14.75
2018-01-15T08:17:55.695Z,15.00
2018-01-15T08:20:24.013Z,15.00
2018-01-15T08:22:52.300Z,13.65
2018-01-15T08:25:20.603Z,15.65
2018-01-15T08:27:48.922Z,15.13
2018-01-15T08:30:17.268Z,14.90
2018-01-15T08:32:45.556Z,16.55
2018-01-15T08:35:13.905Z,15.57
2018-01-15T08:37:42.188Z,15.75
2018-01-15T08:40:10.497Z,15.52
2018-01-15T08:42:38.823Z,13.80
2018-01-15T08:45:07.112Z,13.77
2018-01-15T08:47:35.425Z,15.30
2018-01-15T08:50:03.736Z,15.13
2018-01-15T08:52:32.032Z,15.25
2018-01-15T08:55:00.380Z,16.12
2018-01-15T08:57:28.719Z,16.85
2018-01-15T08:59:57.007Z,16.15
2018-01-15T09:02:25.291Z,15.15
2018-01-15T09:04:53.595Z,15.52
2018-01-15T09:07:21.929Z,15.18
2018-01-15T09:09:50.229Z,15.93
2018-01-15T09:12:18.553Z,16.33
2018-01-15T09:14:46.878Z,15.18
2018-01-15T09:17:16.094Z,15.30
2018-01-15T09:19:44.443Z,15.60
2018-01-15T09:22:12.723Z,15.93
2018-01-15T09:24:41.069Z,15.95
2018-01-15T09:27:09.394Z,14.25
2018-01-15T09:29:37.753Z,15.65
2018-01-15T09:32:06.105Z,11.88
2018-01-15T09:34:34.395Z,14.73
2018-01-15T09:37:02.712Z,15.82
2018-01-15T09:39:31.077Z,13.35
2018-01-15T09:41:59.356Z,14.98
2018-01-15T09:44:27.627Z,14.32
2018-01-15T09:46:55.936Z,16.15
2018-01-15T09:49:24.224Z,14.65
2018-01-15T09:51:52.530Z,13.23
2018-01-15T09:54:21.196Z,15.40
2018-01-15T09:56:49.477Z,17.12
2018-01-15T09:59:17.841Z,15.43
2018-01-15T10:01:46.160Z,16.80
2018-01-15T10:04:14.512Z,18.40
2018-01-15T10:06:42.889Z,15.88
2018-01-15T10:09:11.199Z,17.73
2018-01-15T10:11:39.524Z,17.45
2018-01-15T10:14:07.824Z,18.05
2018-01-15T10:16:36.133Z,17.92
2018-01-15T10:19:04.445Z,16.60
2018-01-15T10:21:32.749Z,17.37
2018-01-15T10:24:01.080Z,16.35
2018-01-15T10:26:29.392Z,17.00
2018-01-15T10:28:57.731Z,16.77
2018-01-15T10:31:26.157Z,18.70
2018-01-15T10:33:54.491Z,16.45
2018-01-15T10:36:22.784Z,17.30
2018-01-15T10:38:51.095Z,18.17
2018-01-15T10:41:19.400Z,17.15
2018-01-15T10:43:47.791Z,16.40
2018-01-15T10:46:15.966Z,17.92
2018-01-15T10:48:44.156Z,16.92
2018-01-15T10:51:12.354Z,19.40
2018-01-15T10:53:40.530Z,19.17
2018-01-15T10:56:08.718Z,19.02
2018-01-15T10:58:36.954Z,18.77
2018-01-15T11:01:11.424Z,19.17
2018-01-15T11:03:39.666Z,17.20
2018-01-15T11:06:07.862Z,17.60
2018-01-15T11:08:36.033Z,17.77
2018-01-15T11:11:04.235Z,17.83
2018-01-15T11:13:32.418Z,16.37
2018-01-15T11:16:00.625Z,17.48
2018-01-15T11:18:28.813Z,19.45
2018-01-15T11:20:56.998Z,18.42
2018-01-15T11:23:25.269Z,18.08
2018-01-15T11:25:53.447Z,18.45
2018-01-15T11:28:21.616Z,20.00
2018-01-15T11:30:49.854Z,17.35
2018-01-15T11:33:18.045Z,18.35
2018-01-15T11:35:46.238Z,18.20
2018-01-15T11:38:14.447Z,20.20
2018-01-15T11:40:42.673Z,19.90
2018-01-15T11:43:10.954Z,19.77
2018-01-15T11:45:39.143Z,19.10
2018-01-15T11:48:07.353Z,18.67
2018-01-15T11:50:35.558Z,18.90
2018-01-15T11:53:03.758Z,19.80
2018-01-15T11:55:31.961Z,18.12
2018-01-15T11:58:00.151Z,19.02
2018-01-15T12:00:28.375Z,19.30
2018-01-15T12:02:56.583Z,18.67
2018-01-15T12:05:24.763Z,16.90
2018-01-15T12:07:52.966Z,20.08
2018-01-15T12:10:21.149Z,18.83
2018-01-15T12:12:49.525Z,18.92
2018-01-15T12:15:17.713Z,18.87
2018-01-15T12:17:45.902Z,18.02
2018-01-15T12:20:14.914Z,17.60
2018-01-15T12:22:43.112Z,18.50
2018-01-15T12:25:11.317Z,18.77
2018-01-15T12:27:39.648Z,17.80
2018-01-15T12:30:07.880Z,18.85
2018-01-15T12:32:36.063Z,20.85
2018-01-15T12:35:04.267Z,18.12
2018-01-15T12:37:32.774Z,21.42
2018-01-15T12:40:00.987Z,20.50
2018-01-15T12:42:29.175Z,22.13
2018-01-15T12:44:57.938Z,18.83
2018-01-15T12:47:26.155Z,17.62
2018-01-15T12:49:54.338Z,19.98
2018-01-15T12:52:22.553Z,18.75
2018-01-15T12:54:50.742Z,17.90
2018-01-15T12:57:19.067Z,18.15
2018-01-15T12:59:47.484Z,17.67
2018-01-15T13:02:15.801Z,18.83
2018-01-15T13:04:44.103Z,17.65
2018-01-15T13:07:24.632Z,18.90
2018-01-15T13:09:53.017Z,19.87
2018-01-15T13:12:21.330Z,19.55
2018-01-15T13:14:49.600Z,18.20
2018-01-15T13:17:17.923Z,17.30
2018-01-15T13:19:46.323Z,16.10
2018-01-15T13:22:14.640Z,19.52
2018-01-15T13:24:42.944Z,16.92
2018-01-15T13:27:11.234Z,17.87
2018-01-15T13:29:39.548Z,19.15
2018-01-15T13:32:07.868Z,18.15
2018-01-15T13:34:36.184Z,17.33
2018-01-15T13:37:04.511Z,19.98
2018-01-15T13:39:32.840Z,17.73
2018-01-15T13:42:01.149Z,19.73
2018-01-15T13:44:29.456Z,20.88
2018-01-15T13:46:57.772Z,19.98
2018-01-15T13:49:26.093Z,21.30
2018-01-15T13:51:54.397Z,19.15
2018-01-15T13:54:22.697Z,17.60
2018-01-15T13:56:51.012Z,20.15
2018-01-15T13:59:19.300Z,20.75
2018-01-15T14:01:47.599Z,20.08
2018-01-15T14:04:15.967Z,18.25
2018-01-15T14:06:44.341Z,17.55
2018-01-15T14:09:12.622Z,20.25
2018-01-15T14:11:40.992Z,18.35
2018-01-15T14:14:09.288Z,17.17
2018-01-15T14:16:37.604Z,16.73
2018-01-15T14:19:05.909Z,17.87
2018-01-15T14:21:34.216Z,16.70
2018-01-15T14:24:02.516Z,18.90
2018-01-15T14:26:30.805Z,17.37
2018-01-15T14:28:59.128Z,17.73
2018-01-15T14:31:27.404Z,17.42
2018-01-15T14:33:55.713Z,16.37
2018-01-15T14:36:24.054Z,16.95
2018-01-15T14:38:52.364Z,16.75
2018-01-15T14:41:20.673Z,19.15
2018-01-15T14:43:48.997Z,18.48
2018-01-15T14:46:17.296Z,18.40
2018-01-15T14:48:45.631Z,19.45
2018-01-15T14:51:13.967Z,19.90
2018-01-15T14:53:42.284Z,21.23
2018-01-15T14:56:10.573Z,21.05
2018-01-15T14:58:38.944Z,19.02
2018-01-15T15:01:07.258Z,20.95
2018-01-15T15:03:35.566Z,18.92
2018-01-15T15:06:03.875Z,21.45
2018-01-15T15:08:32.203Z,22.70
2018-01-15T15:11:00.512Z,19.58
2018-01-15T15:13:28.829Z,19.20
2018-01-15T15:15:57.202Z,18.75
2018-01-15T15:18:25.492Z,19.40
2018-01-15T15:20:53.814Z,19.58
2018-01-15T15:23:22.144Z,19.98
2018-01-15T15:25:50.436Z,19.02
2018-01-15T15:28:18.752Z,19.92
2018-01-15T15:30:47.056Z,20.27
2018-01-15T15:33:15.384Z,19.70
2018-01-15T15:35:43.684Z,21.25
2018-01-15T15:38:11.991Z,20.95
2018-01-15T15:40:40.292Z,18.98
2018-01-15T15:43:08.913Z,19.65
2018-01-15T15:45:37.241Z,20.00
2018-01-15T15:48:05.560Z,21.33
2018-01-15T15:50:33.887Z,21.85
2018-01-15T15:53:02.191Z,20.08
2018-01-15T15:55:30.477Z,20.35
2018-01-15T15:57:58.786Z,20.77
2018-01-15T16:00:27.077Z,22.67
2018-01-15T16:02:55.389Z,22.52
2018-01-15T16:05:23.712Z,22.73
2018-01-15T16:07:52.008Z,22.83
2018-01-15T16:10:20.387Z,20.20
2018-01-15T16:12:48.705Z,23.17
2018-01-15T16:15:16.996Z,22.92
2018-01-15T16:17:45.292Z,24.23
2018-01-15T16:20:13.616Z,22.70
2018-01-15T16:22:54.037Z,24.77
2018-01-15T16:25:22.352Z,23.33
2018-01-15T16:27:50.802Z,24.17
2018-01-15T16:30:19.116Z,23.15
2018-01-15T16:32:47.446Z,22.77
2018-01-15T16:35:15.763Z,25.10
2018-01-15T16:37:44.392Z,21.75
2018-01-15T16:40:12.720Z,21.83
2018-01-15T16:42:41.011Z,23.45
2018-01-15T16:45:09.354Z,22.40
2018-01-15T16:47:37.709Z,23.92
2018-01-15T16:50:11.981Z,21.95
2018-01-15T16:52:40.320Z,23.45
2018-01-15T16:55:08.619Z,20.90
2018-01-15T16:57:36.911Z,24.05
2018-01-15T17:00:05.232Z,21.62
2018-01-15T17:02:34.534Z,22.33
2018-01-15T17:05:02.863Z,23.95
2018-01-15T17:07:31.156Z,24.58
2018-01-15T17:09:59.781Z,23.75
2018-01-15T17:12:28.096Z,21.75
2018-01-15T17:14:56.437Z,24.90
2018-01-15T17:17:24.727Z,23.10
2018-01-15T17:19:53.063Z,23.85
2018-01-15T17:22:21.376Z,23.02
2018-01-15T17:24:49.732Z,22.20
2018-01-15T17:27:18.034Z,23.27
2018-01-15T17:29:46.354Z,24.33
2018-01-15T17:32:14.774Z,24.67
2018-01-15T17:34:43.081Z,24.77
2018-01-15T17:37:12.505Z,24.05
2018-01-15T17:39:40.821Z,24.48
2018-01-15T17:42:09.214Z,23.85
2018-01-15T17:44:37.520Z,23.60
2018-01-15T17:47:05.815Z,24.87
2018-01-15T17:49:35.113Z,24.10
2018-01-15T17:52:03.501Z,26.83
2018-01-15T17:54:31.915Z,24.80
2018-01-15T17:57:00.224Z,24.02
2018-01-15T17:59:28.619Z,23.12
2018-01-15T18:01:56.949Z,23.67
2018-01-15T18:04:25.237Z,26.98
2018-01-15T18:06:54.149Z,23.33
2018-01-15T18:09:22.449Z,23.75
2018-01-15T18:11:50.753Z,25.92
2018-01-15T18:14:20.017Z,24.52
2018-01-15T18:16:48.318Z,24.00
2018-01-15T18:19:16.612Z,25.35
2018-01-15T18:21:44.924Z,26.12
2018-01-15T18:24:13.212Z,24.80
2018-01-15T18:26:41.501Z,25.83
2018-01-15T18:29:10.442Z,26.52
2018-01-15T18:31:38.759Z,25.30
2018-01-15T18:34:07.051Z,24.42
2018-01-15T18:36:35.507Z,27.23
2018-01-15T18:39:03.895Z,32.60
2018-01-15T18:41:32.176Z,25.23
2018-01-15T18:44:00.489Z,30.15
2018-01-15T18:46:28.840Z,26.67
2018-01-15T18:48:57.197Z,27.23
2018-01-15T18:51:25.522Z,28.42
2018-01-15T18:53:53.816Z,27.90
2018-01-15T18:56:22.136Z,25.60
2018-01-15T18:58:50.456Z,29.92
2018-01-15T19:01:18.847Z,27.37
2018-01-15T19:03:47.124Z,26.50
2018-01-15T19:06:16.444Z,30.25
2018-01-15T19:08:44.825Z,28.00
2018-01-15T19:11:13.170Z,28.23
2018-01-15T19:13:41.464Z,27.73
2018-01-15T19:16:09.776Z,27.75
2018-01-15T19:18:38.092Z,29.23
2018-01-15T19:21:06.420Z,27.77
2018-01-15T19:23:34.740Z,30.83
2018-01-15T19:26:03.395Z,29.65
2018-01-15T19:28:31.851Z,28.87
2018-01-15T19:31:00.300Z,27.87
2018-01-15T19:33:28.644Z,27.00
2018-01-15T19:38:58.449Z,27.95
2018-01-15T19:41:32.814Z,29.30
2018-01-15T19:44:07.193Z,28.23
2018-01-15T19:46:41.552Z,27.70
2018-01-15T19:49:15.868Z,29.35
2018-01-15T19:51:50.287Z,27.85
2018-01-15T19:54:24.706Z,27.70
2018-01-15T19:56:59.102Z,29.75
2018-01-15T19:59:33.567Z,28.92
2018-01-15T20:02:08.003Z,28.10
2018-01-15T20:04:45.546Z,29.08
2018-01-15T20:07:20.029Z,29.67
2018-01-15T20:09:54.306Z,30.20
2018-01-15T20:12:22.744Z,29.23
2018-01-15T20:14:51.113Z,31.37
2018-01-15T20:17:19.441Z,29.12
2018-01-15T20:19:47.777Z,31.90
2018-01-15T20:22:16.109Z,29.15
2018-01-15T20:24:44.483Z,31.60
2018-01-15T20:27:12.815Z,28.02
2018-01-15T20:29:41.416Z,26.77
2018-01-15T20:32:09.798Z,24.37
2018-01-15T20:34:38.121Z,24.65
2018-01-15T20:37:06.436Z,25.60
2018-01-15T20:39:34.773Z,25.50
2018-01-15T20:42:03.124Z,25.83
2018-01-15T20:44:31.517Z,25.65
2018-01-15T20:46:59.831Z,23.95
2018-01-15T20:49:28.156Z,24.30
2018-01-15T20:51:56.502Z,21.73
2018-01-15T20:54:24.820Z,23.58
2018-01-15T20:56:53.135Z,21.30
2018-01-15T20:59:21.475Z,24.60
2018-01-15T21:01:49.769Z,23.87
2018-01-15T21:04:18.084Z,21.10
2018-01-15T21:06:46.500Z,19.65
2018-01-15T21:09:14.789Z,20.25
2018-01-15T21:11:43.321Z,23.60
2018-01-15T21:14:11.648Z,21.62
2018-01-15T21:16:40.171Z,22.20
2018-01-15T21:19:08.455Z,21.30
2018-01-15T21:21:36.784Z,21.73
2018-01-15T21:24:05.096Z,19.83
2018-01-15T21:26:33.432Z,23.20
2018-01-15T21:29:01.767Z,20.58
2018-01-15T21:31:30.102Z,19.80
2018-01-15T21:33:58.410Z,19.80
2018-01-15T21:36:26.728Z,21.67
2018-01-15T21:38:55.058Z,21.02
2018-01-15T21:41:23.384Z,20.67
2018-01-15T21:43:52.707Z,21.40
2018-01-15T21:46:21.015Z,19.77
2018-01-15T21:48:50.318Z,22.20
2018-01-15T21:51:18.696Z,21.05
2018-01-15T21:53:46.996Z,23.15
2018-01-15T21:56:15.318Z,22.02
2018-01-15T21:58:43.657Z,21.52
2018-01-15T22:01:11.972Z,22.02
2018-01-15T22:03:40.295Z,24.25
2018-01-15T22:06:08.609Z,23.98
2018-01-15T22:08:36.962Z,24.40
2018-01-15T22:11:05.315Z,23.55
2018-01-15T22:13:33.641Z,23.87
2018-01-15T22:16:01.997Z,24.98
2018-01-15T22:18:30.390Z,26.02
2018-01-15T22:20:58.685Z,24.83
2018-01-15T22:23:27.032Z,25.35
2018-01-15T22:25:55.445Z,25.95
2018-01-15T22:28:23.760Z,26.15
2018-01-15T22:30:52.075Z,25.88
2018-01-15T22:33:20.395Z,27.02
2018-01-15T22:35:48.768Z,26.17
2018-01-15T22:38:17.128Z,25.85
2018-01-15T22:40:45.429Z,24.10
2018-01-15T22:43:13.744Z,25.08
2018-01-15T22:45:42.217Z,26.45
2018-01-15T22:48:10.512Z,24.65
2018-01-15T22:50:38.824Z,28.17
2018-01-15T22:53:07.186Z,27.52
2018-01-15T22:55:35.529Z,27.90
2018-01-15T22:58:04.520Z,26.83
2018-01-15T23:00:32.879Z,29.02
2018-01-15T23:03:01.197Z,28.30
2018-01-15T23:05:29.503Z,26.30
2018-01-15T23:07:57.912Z,27.90
2018-01-15T23:10:26.285Z,27.48
2018-01-15T23:12:54.584Z,30.05
2018-01-15T23:15:22.881Z,28.23
2018-01-15T23:17:51.224Z,30.30
2018-01-15T23:20:19.542Z,29.87
2018-01-15T23:22:47.845Z,29.98
2018-01-15T23:25:16.160Z,28.65
2018-01-15T23:27:44.505Z,30.65
2018-01-15T23:30:12.835Z,30.23
2018-01-15T23:32:41.162Z,31.27
2018-01-15T23:35:09.708Z,32.00
2018-01-15T23:37:38.033Z,34.33
2018-01-15T23:40:06.359Z,32.00
2018-01-15T23:42:34.664Z,33.72
2018-01-15T23:45:03.020Z,32.50
2018-01-15T23:47:31.332Z,34.38
2018-01-15T23:49:59.640Z,33.38
2018-01-15T23:52:27.955Z,34.60
2018-01-15T23:54:56.251Z,34.72
2018-01-15T23:57:24.569Z,32.65
2018-01-15T23:59:52.873Z,34.28
